Time;durP1;ratioP1;P1;durP2;ratioP2;P2;SDS_P1;SDS_P2;PMS_P1;PMS_P2;Temp;Humidity;BMP_temperature;BMP_pressure;BME280_temperature;BME280_humidity;BME280_pressure;Samples;Min_cycle;Max_cycle;Signal;HPM_P1;HPM_P2
2023/09/02 00:00:29;;;;;;;59.63;28.02;;;;;;;;;;5029311;28;20297;-67
2023/09/02 00:02:54;;;;;;;54.97;26.13;;;;;;;;;;5022157;28;20178;-68
2023/09/02 00:05:19;;;;;;;55.63;27.63;;;;;;;;;;5030465;28;20185;-67
2023/09/02 00:07:44;;;;;;;61.25;28.52;;;;;;;;;;5023803;28;20182;-67
2023/09/02 00:10:10;;;;;;;54.45;26.77;;;;;;;;;;5012815;28;20277;-68
2023/09/02 00:12:35;;;;;;;55.65;25.55;;;;;;;;;;5022006;28;20646;-67
2023/09/02 00:15:00;;;;;;;52.97;24.85;;;;;;;;;;5024138;28;20173;-68
2023/09/02 00:17:25;;;;;;;53.33;25.48;;;;;;;;;;5032033;28;20178;-66
2023/09/02 00:19:51;;;;;;;53.95;26.33;;;;;;;;;;5040519;22;20199;-70
2023/09/02 00:22:17;;;;;;;49.40;23.98;;;;;;;;;;4996607;28;20204;-72
2023/09/02 00:24:43;;;;;;;56.58;26.85;;;;;;;;;;5004421;28;20231;-71
2023/09/02 00:27:08;;;;;;;64.68;29.38;;;;;;;;;;4991653;28;20245;-72
2023/09/02 00:29:33;;;;;;;53.65;26.83;;;;;;;;;;4989271;28;20175;-71
2023/09/02 00:31:59;;;;;;;58.38;26.52;;;;;;;;;;5000240;28;20179;-72
2023/09/02 00:34:24;;;;;;;52.65;24.10;;;;;;;;;;4989970;28;20685;-71
2023/09/02 00:36:49;;;;;;;56.42;25.35;;;;;;;;;;4995608;28;20252;-72
2023/09/02 00:39:14;;;;;;;71.93;29.90;;;;;;;;;;4994574;28;20681;-72
2023/09/02 00:41:46;;;;;;;72.70;28.83;;;;;;;;;;4993244;28;20556;-72
2023/09/02 00:44:12;;;;;;;59.00;26.30;;;;;;;;;;4987239;28;20180;-72
2023/09/02 00:46:37;;;;;;;73.43;30.02;;;;;;;;;;4989026;28;20184;-72
2023/09/02 00:49:02;;;;;;;68.68;29.35;;;;;;;;;;4988934;28;20180;-72
2023/09/02 00:51:27;;;;;;;59.58;28.20;;;;;;;;;;4991866;28;20669;-72
2023/09/02 00:53:53;;;;;;;61.95;28.23;;;;;;;;;;4992585;28;20200;-71
2023/09/02 00:56:19;;;;;;;64.55;27.23;;;;;;;;;;4992544;28;20230;-72
2023/09/02 00:58:44;;;;;;;72.93;28.83;;;;;;;;;;4986808;28;20565;-72
2023/09/02 01:01:10;;;;;;;63.22;26.67;;;;;;;;;;4981652;28;20291;-72
2023/09/02 01:03:35;;;;;;;62.72;28.27;;;;;;;;;;4985839;28;20249;-72
2023/09/02 01:06:04;;;;;;;60.08;25.63;;;;;;;;;;4992878;28;20590;-72
2023/09/02 01:08:30;;;;;;;54.08;24.42;;;;;;;;;;4987385;28;20176;-72
2023/09/02 01:10:58;;;;;;;61.83;26.63;;;;;;;;;;4985603;28;20303;-72
2023/09/02 01:13:23;;;;;;;59.28;25.70;;;;;;;;;;4994122;28;20188;-72
2023/09/02 01:15:49;;;;;;;58.85;25.58;;;;;;;;;;4991706;28;20242;-71
2023/09/02 01:18:14;;;;;;;69.55;26.63;;;;;;;;;;4992177;28;20168;-71
2023/09/02 01:20:55;;;;;;;63.40;26.67;;;;;;;;;;4991616;28;20640;-72
2023/09/02 01:23:27;;;;;;;67.75;26.08;;;;;;;;;;4992600;28;20549;-72
2023/09/02 01:25:55;;;;;;;59.95;24.77;;;;;;;;;;4992568;28;20179;-72
2023/09/02 01:28:28;;;;;;;64.38;25.67;;;;;;;;;;4987612;28;20207;-73
2023/09/02 01:30:55;;;;;;;65.68;26.70;;;;;;;;;;4985535;28;20269;-71
2023/09/02 01:33:21;;;;;;;53.40;24.90;;;;;;;;;;4992545;28;20199;-72
2023/09/02 01:35:48;;;;;;;68.82;27.80;;;;;;;;;;4988146;28;20188;-72
2023/09/02 01:38:14;;;;;;;60.35;24.88;;;;;;;;;;4993576;28;20159;-72
2023/09/02 01:40:40;;;;;;;55.95;24.92;;;;;;;;;;4988703;28;20195;-71
2023/09/02 01:43:05;;;;;;;66.22;25.98;;;;;;;;;;4983248;28;20175;-72
2023/09/02 01:45:33;;;;;;;54.03;23.88;;;;;;;;;;4991056;28;20235;-71
2023/09/02 01:47:59;;;;;;;75.53;28.02;;;;;;;;;;4992568;28;20665;-71
2023/09/02 01:50:26;;;;;;;61.90;25.65;;;;;;;;;;4991204;28;20199;-71
2023/09/02 01:52:51;;;;;;;62.95;26.55;;;;;;;;;;4989469;28;20176;-72
2023/09/02 01:55:17;;;;;;;66.43;26.05;;;;;;;;;;4988122;28;20181;-72
2023/09/02 01:57:42;;;;;;;63.13;27.25;;;;;;;;;;4996805;28;20199;-72
2023/09/02 02:00:08;;;;;;;67.70;25.88;;;;;;;;;;5000164;28;20202;-72
2023/09/02 02:02:36;;;;;;;65.43;27.48;;;;;;;;;;4991474;28;20176;-72
2023/09/02 02:05:05;;;;;;;59.55;24.67;;;;;;;;;;4985237;28;20645;-72
2023/09/02 02:07:33;;;;;;;70.53;28.00;;;;;;;;;;4984549;28;20214;-72
2023/09/02 02:10:00;;;;;;;78.57;28.65;;;;;;;;;;4985024;28;20200;-72
2023/09/02 02:12:26;;;;;;;80.90;29.67;;;;;;;;;;4992215;28;20214;-72
2023/09/02 02:14:51;;;;;;;63.03;25.90;;;;;;;;;;4987667;28;20249;-72
2023/09/02 02:17:16;;;;;;;90.25;28.42;;;;;;;;;;4992833;28;20168;-72
2023/09/02 02:19:44;;;;;;;73.95;26.33;;;;;;;;;;4992410;28;20270;-72
2023/09/02 02:22:09;;;;;;;52.13;22.35;;;;;;;;;;4992908;28;20195;-72
2023/09/02 02:24:34;;;;;;;52.40;25.15;;;;;;;;;;4986740;28;20263;-72
2023/09/02 02:27:00;;;;;;;59.63;24.38;;;;;;;;;;4990844;28;20237;-74
2023/09/02 02:29:25;;;;;;;109.13;28.25;;;;;;;;;;4990400;28;20198;-73
2023/09/02 02:31:50;;;;;;;83.40;27.33;;;;;;;;;;4991736;28;20725;-72
2023/09/02 02:34:15;;;;;;;48.63;22.73;;;;;;;;;;4990668;28;20251;-73
2023/09/02 02:36:41;;;;;;;60.35;22.88;;;;;;;;;;4985904;28;20176;-72
2023/09/02 02:39:06;;;;;;;66.95;23.85;;;;;;;;;;4991406;28;20178;-72
2023/09/02 02:41:32;;;;;;;43.78;21.25;;;;;;;;;;4989371;28;20247;-73
2023/09/02 02:43:58;;;;;;;57.30;22.05;;;;;;;;;;4990619;28;20191;-73
2023/09/02 02:46:23;;;;;;;88.85;24.55;;;;;;;;;;4988554;28;20164;-71
2023/09/02 02:48:48;;;;;;;45.88;18.85;;;;;;;;;;4987324;28;20623;-74
2023/09/02 02:51:14;;;;;;;61.78;23.23;;;;;;;;;;4989806;28;20235;-73
2023/09/02 02:53:39;;;;;;;50.78;20.13;;;;;;;;;;4992688;28;20756;-72
2023/09/02 02:56:04;;;;;;;73.95;21.33;;;;;;;;;;4990051;28;20175;-71
2023/09/02 02:58:31;;;;;;;45.58;20.10;;;;;;;;;;4989702;28;20559;-71
2023/09/02 03:01:04;;;;;;;52.17;20.45;;;;;;;;;;4991225;28;20204;-71
2023/09/02 03:03:29;;;;;;;40.30;19.50;;;;;;;;;;4992069;28;20211;-72
2023/09/02 03:05:55;;;;;;;69.65;20.90;;;;;;;;;;4992457;28;20220;-72
2023/09/02 03:08:20;;;;;;;77.47;21.05;;;;;;;;;;4993478;28;20274;-72
2023/09/02 03:10:45;;;;;;;43.80;17.80;;;;;;;;;;4993639;28;20624;-72
2023/09/02 03:13:10;;;;;;;68.60;18.98;;;;;;;;;;4994328;28;20298;-72
2023/09/02 03:15:36;;;;;;;39.92;17.33;;;;;;;;;;4994386;28;20175;-72
2023/09/02 03:18:01;;;;;;;42.70;17.50;;;;;;;;;;4991394;28;20183;-72
2023/09/02 03:20:26;;;;;;;53.47;17.88;;;;;;;;;;4992668;28;20291;-71
2023/09/02 03:22:51;;;;;;;30.15;15.50;;;;;;;;;;4994124;28;20176;-71
2023/09/02 03:25:17;;;;;;;29.23;14.70;;;;;;;;;;4994851;28;20168;-71
2023/09/02 03:27:42;;;;;;;42.83;16.70;;;;;;;;;;4995182;28;20258;-72
2023/09/02 03:30:07;;;;;;;32.35;15.68;;;;;;;;;;4993554;28;20287;-72
2023/09/02 03:32:33;;;;;;;35.42;15.43;;;;;;;;;;4991858;28;20172;-72
2023/09/02 03:34:58;;;;;;;27.88;14.05;;;;;;;;;;4993900;28;20362;-72
2023/09/02 03:37:24;;;;;;;25.38;13.77;;;;;;;;;;4997799;28;20177;-72
2023/09/02 03:39:49;;;;;;;41.35;15.70;;;;;;;;;;4990714;28;20570;-71
2023/09/02 03:42:14;;;;;;;26.95;13.15;;;;;;;;;;4995545;28;20184;-72
2023/09/02 03:44:39;;;;;;;21.92;12.52;;;;;;;;;;4995547;28;20546;-72
2023/09/02 03:47:05;;;;;;;28.15;14.52;;;;;;;;;;4992640;28;20612;-71
2023/09/02 03:49:30;;;;;;;28.38;13.80;;;;;;;;;;4995304;28;20610;-72
2023/09/02 03:51:55;;;;;;;24.55;13.45;;;;;;;;;;4991529;28;20184;-71
2023/09/02 03:54:20;;;;;;;21.58;12.57;;;;;;;;;;4985656;28;20285;-72
2023/09/02 03:56:46;;;;;;;26.35;13.50;;;;;;;;;;5006468;28;20179;-72
2023/09/02 03:59:11;;;;;;;31.05;13.60;;;;;;;;;;4994594;28;20175;-72
2023/09/02 04:01:36;;;;;;;16.63;11.55;;;;;;;;;;4994789;28;20196;-72
2023/09/02 04:04:01;;;;;;;57.35;15.70;;;;;;;;;;4994792;28;20192;-72
2023/09/02 04:06:27;;;;;;;21.20;12.25;;;;;;;;;;4992122;28;20179;-72
2023/09/02 04:08:52;;;;;;;59.30;16.50;;;;;;;;;;5009846;28;20649;-72
2023/09/02 04:11:17;;;;;;;23.48;13.25;;;;;;;;;;4994553;28;20197;-72
2023/09/02 04:13:43;;;;;;;26.33;13.32;;;;;;;;;;4993081;28;20278;-71
2023/09/02 04:16:10;;;;;;;20.58;12.93;;;;;;;;;;4990359;28;20180;-72
2023/09/02 04:18:35;;;;;;;31.77;14.65;;;;;;;;;;4994727;28;20274;-72
2023/09/02 04:21:01;;;;;;;53.45;14.68;;;;;;;;;;4987918;28;20556;-72
2023/09/02 04:23:27;;;;;;;30.98;13.63;;;;;;;;;;4993096;28;20194;-71
2023/09/02 04:25:53;;;;;;;28.25;14.07;;;;;;;;;;4994111;28;20610;-73
2023/09/02 04:28:19;;;;;;;39.97;15.98;;;;;;;;;;4989437;28;20175;-72
2023/09/02 04:30:44;;;;;;;26.98;13.57;;;;;;;;;;4990543;28;20592;-72
2023/09/02 04:33:10;;;;;;;20.58;12.25;;;;;;;;;;4994201;28;20203;-72
2023/09/02 04:35:36;;;;;;;24.83;14.25;;;;;;;;;;4992040;28;20194;-72
2023/09/02 04:38:01;;;;;;;42.53;14.88;;;;;;;;;;4993901;28;20606;-72
2023/09/02 04:40:26;;;;;;;37.80;14.70;;;;;;;;;;4991105;28;20803;-72
2023/09/02 04:42:51;;;;;;;20.42;12.18;;;;;;;;;;4986833;28;20187;-72
2023/09/02 04:45:17;;;;;;;26.33;13.68;;;;;;;;;;4994340;28;20195;-71
2023/09/02 04:47:42;;;;;;;28.45;14.27;;;;;;;;;;4992929;28;20207;-73
2023/09/02 04:50:07;;;;;;;28.42;12.93;;;;;;;;;;4994717;28;20192;-72
2023/09/02 04:52:33;;;;;;;29.95;13.35;;;;;;;;;;4994549;28;20172;-71
2023/09/02 04:54:58;;;;;;;29.30;13.55;;;;;;;;;;4988418;28;20203;-72
2023/09/02 04:57:23;;;;;;;29.90;13.75;;;;;;;;;;4987968;28;20184;-72
2023/09/02 04:59:48;;;;;;;26.42;13.82;;;;;;;;;;4993150;28;20223;-72
2023/09/02 05:02:14;;;;;;;32.70;14.38;;;;;;;;;;4993865;28;20187;-71
2023/09/02 05:04:39;;;;;;;26.13;14.55;;;;;;;;;;4993395;28;20181;-71
2023/09/02 05:07:04;;;;;;;38.97;15.98;;;;;;;;;;4993428;28;20230;-71
2023/09/02 05:09:29;;;;;;;30.02;15.63;;;;;;;;;;4990292;28;20175;-71
2023/09/02 05:11:54;;;;;;;29.33;15.63;;;;;;;;;;4988948;28;20188;-71
2023/09/02 05:14:20;;;;;;;34.85;17.30;;;;;;;;;;4991990;28;20204;-71
2023/09/02 05:16:45;;;;;;;40.28;16.83;;;;;;;;;;4991181;28;20171;-71
2023/09/02 05:19:10;;;;;;;27.55;15.57;;;;;;;;;;4992888;28;20247;-72
2023/09/02 05:21:35;;;;;;;26.27;13.90;;;;;;;;;;4991890;28;20199;-72
2023/09/02 05:24:01;;;;;;;23.30;13.63;;;;;;;;;;4991880;28;20691;-72
2023/09/02 05:26:26;;;;;;;28.65;15.70;;;;;;;;;;4994118;28;20624;-72
2023/09/02 05:28:51;;;;;;;24.42;12.93;;;;;;;;;;4992489;28;20190;-72
2023/09/02 05:31:17;;;;;;;24.75;13.68;;;;;;;;;;4991813;28;20191;-72
2023/09/02 05:33:42;;;;;;;25.23;15.27;;;;;;;;;;4992133;28;20669;-72
2023/09/02 05:36:07;;;;;;;23.77;13.68;;;;;;;;;;4993178;28;20232;-72
2023/09/02 05:38:32;;;;;;;25.58;14.00;;;;;;;;;;4992455;28;20615;-72
2023/09/02 05:40:57;;;;;;;24.33;13.82;;;;;;;;;;4991452;28;20234;-72
2023/09/02 05:43:24;;;;;;;22.73;14.85;;;;;;;;;;4993366;28;20214;-72
2023/09/02 05:45:49;;;;;;;22.52;13.05;;;;;;;;;;4993135;28;20176;-73
2023/09/02 05:48:16;;;;;;;24.10;14.55;;;;;;;;;;4989900;28;20199;-72
2023/09/02 05:50:41;;;;;;;19.45;12.57;;;;;;;;;;4991724;28;20203;-73
2023/09/02 05:53:07;;;;;;;20.52;12.60;;;;;;;;;;4991060;28;20210;-72
2023/09/02 05:55:33;;;;;;;23.83;13.40;;;;;;;;;;4986945;28;20180;-71
2023/09/02 05:57:58;;;;;;;24.30;14.00;;;;;;;;;;4987819;28;20236;-72
2023/09/02 06:00:23;;;;;;;27.33;13.70;;;;;;;;;;4982281;28;20911;-72
2023/09/02 06:02:48;;;;;;;25.50;13.30;;;;;;;;;;4985504;28;20175;-71
2023/09/02 06:05:14;;;;;;;23.50;13.40;;;;;;;;;;4992436;28;20172;-72
2023/09/02 06:07:39;;;;;;;20.27;13.48;;;;;;;;;;4996205;28;20179;-72
2023/09/02 06:10:04;;;;;;;22.63;13.10;;;;;;;;;;4983598;28;20204;-73
2023/09/02 06:12:30;;;;;;;20.73;12.52;;;;;;;;;;5004299;28;20188;-73
2023/09/02 06:14:55;;;;;;;25.85;12.13;;;;;;;;;;5005076;28;20238;-71
2023/09/02 06:17:21;;;;;;;20.48;12.05;;;;;;;;;;5001410;28;20180;-72
2023/09/02 06:19:46;;;;;;;19.98;10.68;;;;;;;;;;5013374;28;20528;-71
2023/09/02 06:22:11;;;;;;;16.88;10.48;;;;;;;;;;5048017;22;20230;-71
2023/09/02 06:24:36;;;;;;;23.25;11.90;;;;;;;;;;5009704;28;20556;-71
2023/09/02 06:27:03;;;;;;;18.98;11.68;;;;;;;;;;5013811;28;20183;-71
2023/09/02 06:29:32;;;;;;;20.23;11.73;;;;;;;;;;5018090;28;20171;-71
2023/09/02 06:31:57;;;;;;;21.38;12.50;;;;;;;;;;5015884;28;20665;-71
2023/09/02 06:34:23;;;;;;;16.40;11.57;;;;;;;;;;5012217;28;20297;-70
2023/09/02 06:36:48;;;;;;;16.40;10.68;;;;;;;;;;5011283;28;20198;-71
2023/09/02 06:39:13;;;;;;;30.92;12.25;;;;;;;;;;5013882;28;20189;-70
2023/09/02 06:41:38;;;;;;;13.55;9.60;;;;;;;;;;5011629;28;20212;-71
2023/09/02 06:44:04;;;;;;;13.10;10.23;;;;;;;;;;5013072;28;20222;-71
2023/09/02 06:46:31;;;;;;;17.25;10.40;;;;;;;;;;5012784;28;20207;-71
2023/09/02 06:48:56;;;;;;;15.68;9.77;;;;;;;;;;5012794;28;20186;-71
2023/09/02 06:51:21;;;;;;;14.60;9.27;;;;;;;;;;5012432;28;20199;-71
2023/09/02 06:53:46;;;;;;;16.30;9.50;;;;;;;;;;5014644;28;20607;-70
2023/09/02 06:56:12;;;;;;;14.38;9.05;;;;;;;;;;5012990;28;20198;-70
2023/09/02 06:58:38;;;;;;;17.25;10.00;;;;;;;;;;5003387;28;20175;-71
2023/09/02 07:01:03;;;;;;;18.52;10.20;;;;;;;;;;5010672;28;20575;-71
2023/09/02 07:03:28;;;;;;;16.77;9.25;;;;;;;;;;5010022;28;20179;-70
2023/09/02 07:05:54;;;;;;;12.20;9.10;;;;;;;;;;5012419;28;20202;-71
2023/09/02 07:08:19;;;;;;;16.05;10.57;;;;;;;;;;5014137;28;20254;-71
2023/09/02 07:10:44;;;;;;;22.70;10.70;;;;;;;;;;5013537;28;20633;-71
2023/09/02 07:13:10;;;;;;;12.77;9.25;;;;;;;;;;5013937;28;20217;-71
2023/09/02 07:15:35;;;;;;;14.05;10.55;;;;;;;;;;5012910;28;20194;-70
2023/09/02 07:18:01;;;;;;;17.75;10.60;;;;;;;;;;5013788;28;20217;-70
2023/09/02 07:20:26;;;;;;;15.13;10.25;;;;;;;;;;5011209;28;20264;-71
2023/09/02 07:22:51;;;;;;;15.73;10.75;;;;;;;;;;5013829;28;20248;-71
2023/09/02 07:25:16;;;;;;;18.35;10.80;;;;;;;;;;5013862;28;20657;-71
2023/09/02 07:27:41;;;;;;;20.80;11.23;;;;;;;;;;5013800;28;20693;-70
2023/09/02 07:30:07;;;;;;;14.68;10.65;;;;;;;;;;5012564;28;20187;-71
2023/09/02 07:32:32;;;;;;;18.80;11.43;;;;;;;;;;5011486;28;20175;-70
2023/09/02 07:34:57;;;;;;;20.13;12.15;;;;;;;;;;5012936;28;20199;-70
2023/09/02 07:37:22;;;;;;;14.85;11.15;;;;;;;;;;5013242;28;20703;-70
2023/09/02 07:39:48;;;;;;;14.73;10.15;;;;;;;;;;5012408;28;20179;-70
2023/09/02 07:42:13;;;;;;;15.55;10.95;;;;;;;;;;5012486;28;20203;-71
2023/09/02 07:44:38;;;;;;;15.98;10.30;;;;;;;;;;5013355;28;20548;-71
2023/09/02 07:47:03;;;;;;;16.05;11.27;;;;;;;;;;5010676;28;20727;-71
2023/09/02 07:49:28;;;;;;;14.15;10.38;;;;;;;;;;5011169;28;20183;-71
2023/09/02 07:51:54;;;;;;;16.38;11.23;;;;;;;;;;5013013;28;20203;-70
2023/09/02 07:54:19;;;;;;;16.77;11.18;;;;;;;;;;5013236;28;20252;-71
2023/09/02 07:56:44;;;;;;;15.32;10.65;;;;;;;;;;5011208;28;20186;-71
2023/09/02 07:59:09;;;;;;;17.65;10.90;;;;;;;;;;4999948;28;20368;-70
2023/09/02 08:01:35;;;;;;;16.55;11.60;;;;;;;;;;4997382;28;20900;-70
2023/09/02 08:04:00;;;;;;;16.77;11.15;;;;;;;;;;5012486;28;20266;-70
2023/09/02 08:06:25;;;;;;;17.70;11.82;;;;;;;;;;5012502;28;20182;-70
2023/09/02 08:08:52;;;;;;;16.27;11.93;;;;;;;;;;5012290;28;20183;-69
2023/09/02 08:11:18;;;;;;;15.77;10.85;;;;;;;;;;5012385;28;20203;-71
2023/09/02 08:13:43;;;;;;;20.42;12.25;;;;;;;;;;5011171;28;20618;-70
2023/09/02 08:16:09;;;;;;;17.52;11.48;;;;;;;;;;5011980;28;20298;-70
2023/09/02 08:18:34;;;;;;;16.92;11.43;;;;;;;;;;5004990;28;20233;-70
2023/09/02 08:21:00;;;;;;;18.63;11.85;;;;;;;;;;5012038;28;20293;-70
2023/09/02 08:23:25;;;;;;;15.43;11.00;;;;;;;;;;5012243;28;20262;-70
2023/09/02 08:25:50;;;;;;;15.07;10.68;;;;;;;;;;5012626;28;20187;-70
2023/09/02 08:28:15;;;;;;;13.85;10.15;;;;;;;;;;5011299;28;20195;-70
2023/09/02 08:30:41;;;;;;;15.53;9.97;;;;;;;;;;5005238;28;20228;-70
2023/09/02 08:33:06;;;;;;;13.63;10.18;;;;;;;;;;5011752;28;20786;-70
2023/09/02 08:35:37;;;;;;;15.73;11.60;;;;;;;;;;5006177;28;20604;-70
2023/09/02 08:38:05;;;;;;;15.50;11.50;;;;;;;;;;5008940;28;20183;-70
2023/09/02 08:40:31;;;;;;;18.13;11.20;;;;;;;;;;5011551;28;20780;-70
2023/09/02 08:42:56;;;;;;;15.63;10.27;;;;;;;;;;5010835;28;20265;-70
2023/09/02 08:45:22;;;;;;;15.90;11.40;;;;;;;;;;5009828;28;20175;-70
2023/09/02 08:47:51;;;;;;;15.77;11.32;;;;;;;;;;5010537;28;20170;-70
2023/09/02 08:50:17;;;;;;;16.75;11.75;;;;;;;;;;5011403;28;20183;-69
2023/09/02 08:52:42;;;;;;;16.98;11.77;;;;;;;;;;5010027;28;20186;-70
2023/09/02 08:55:09;;;;;;;18.13;12.43;;;;;;;;;;5011858;28;20218;-70
2023/09/02 08:57:35;;;;;;;19.23;13.32;;;;;;;;;;5010516;28;20171;-70
2023/09/02 09:00:01;;;;;;;16.48;12.43;;;;;;;;;;5009976;28;20179;-69
2023/09/02 09:02:27;;;;;;;20.10;12.68;;;;;;;;;;5010610;28;20262;-68
2023/09/02 09:04:53;;;;;;;15.63;11.68;;;;;;;;;;5012176;28;20244;-69
2023/09/02 09:07:19;;;;;;;17.13;12.57;;;;;;;;;;5012656;28;20203;-69
2023/09/02 09:09:45;;;;;;;16.95;11.18;;;;;;;;;;5011431;28;20574;-69
2023/09/02 09:12:11;;;;;;;18.25;12.40;;;;;;;;;;5005339;28;20199;-70
2023/09/02 09:14:37;;;;;;;17.48;12.02;;;;;;;;;;5001987;28;20199;-69
2023/09/02 09:17:03;;;;;;;20.10;12.93;;;;;;;;;;5010613;28;20594;-69
2023/09/02 09:19:28;;;;;;;20.90;13.57;;;;;;;;;;5008407;28;20179;-69
2023/09/02 09:21:54;;;;;;;17.98;12.90;;;;;;;;;;5010295;28;20236;-69
2023/09/02 09:24:20;;;;;;;19.20;13.32;;;;;;;;;;5006341;28;20178;-69
2023/09/02 09:26:45;;;;;;;18.67;12.63;;;;;;;;;;5010352;28;20170;-69
2023/09/02 09:29:12;;;;;;;20.70;13.70;;;;;;;;;;5010363;28;20179;-69
2023/09/02 09:31:37;;;;;;;22.05;15.00;;;;;;;;;;5010595;28;20195;-69
2023/09/02 09:34:03;;;;;;;22.42;14.48;;;;;;;;;;5009059;28;20195;-69
2023/09/02 09:36:29;;;;;;;20.30;14.15;;;;;;;;;;5006896;28;20202;-69
2023/09/02 09:38:56;;;;;;;19.60;13.95;;;;;;;;;;5009595;28;20178;-69
2023/09/02 09:41:23;;;;;;;20.90;13.40;;;;;;;;;;5010466;28;20290;-69
2023/09/02 09:44:04;;;;;;;20.70;13.80;;;;;;;;;;5011138;28;20197;-70
2023/09/02 09:46:32;;;;;;;20.13;14.15;;;;;;;;;;5010469;28;20170;-69
2023/09/02 09:49:01;;;;;;;21.67;14.10;;;;;;;;;;5010623;28;20179;-69
2023/09/02 09:51:26;;;;;;;22.25;14.30;;;;;;;;;;5009893;28;20290;-70
2023/09/02 09:53:51;;;;;;;20.85;14.18;;;;;;;;;;5009976;28;20270;-69
2023/09/02 09:56:17;;;;;;;24.50;15.03;;;;;;;;;;5002411;28;20179;-70
2023/09/02 09:58:42;;;;;;;20.20;13.32;;;;;;;;;;5009838;28;20454;-69
2023/09/02 10:01:08;;;;;;;20.02;14.25;;;;;;;;;;5008335;28;20207;-69
2023/09/02 10:03:34;;;;;;;27.08;15.57;;;;;;;;;;5007874;28;20175;-69
2023/09/02 10:05:59;;;;;;;20.70;14.50;;;;;;;;;;5007730;28;20193;-69
2023/09/02 10:08:25;;;;;;;21.08;13.80;;;;;;;;;;5009103;28;20289;-69
2023/09/02 10:10:50;;;;;;;21.75;13.98;;;;;;;;;;5009107;28;20210;-69
2023/09/02 10:13:15;;;;;;;21.25;13.63;;;;;;;;;;5009515;28;20179;-69
2023/09/02 10:15:42;;;;;;;21.00;13.98;;;;;;;;;;5009143;28;20657;-69
2023/09/02 10:18:07;;;;;;;22.20;14.43;;;;;;;;;;5008682;28;20186;-69
2023/09/02 10:20:35;;;;;;;20.92;13.50;;;;;;;;;;5008334;28;20203;-69
2023/09/02 10:23:02;;;;;;;21.70;14.07;;;;;;;;;;5006560;28;20178;-69
2023/09/02 10:25:29;;;;;;;23.60;14.50;;;;;;;;;;5008780;28;20171;-69
2023/09/02 10:28:00;;;;;;;19.08;13.18;;;;;;;;;;5007460;28;20206;-69
2023/09/02 10:30:30;;;;;;;23.17;14.18;;;;;;;;;;5006393;28;20281;-69
2023/09/02 10:32:59;;;;;;;20.70;14.18;;;;;;;;;;5007502;28;20536;-69
2023/09/02 10:35:28;;;;;;;21.48;14.20;;;;;;;;;;5009509;28;20270;-69
2023/09/02 10:37:54;;;;;;;19.95;12.85;;;;;;;;;;5005934;28;20182;-69
2023/09/02 10:40:21;;;;;;;19.40;13.52;;;;;;;;;;5006908;28;20175;-69
2023/09/02 10:42:48;;;;;;;20.77;14.75;;;;;;;;;;5009471;28;20250;-69
2023/09/02 10:45:14;;;;;;;19.13;13.65;;;;;;;;;;5001285;28;20495;-68
2023/09/02 10:47:39;;;;;;;21.45;14.23;;;;;;;;;;5009972;28;20181;-69
2023/09/02 10:50:05;;;;;;;22.33;14.93;;;;;;;;;;5009344;28;20183;-68
2023/09/02 10:52:31;;;;;;;20.10;13.88;;;;;;;;;;5010061;28;20179;-69
2023/09/02 10:55:08;;;;;;;20.75;13.95;;;;;;;;;;5009164;28;20292;-69
2023/09/02 10:57:44;;;;;;;21.30;14.10;;;;;;;;;;5009955;28;20201;-69
2023/09/02 11:00:13;;;;;;;20.42;14.25;;;;;;;;;;5009072;28;20848;-69
2023/09/02 11:02:39;;;;;;;21.67;14.23;;;;;;;;;;4999520;28;20179;-69
2023/09/02 11:05:05;;;;;;;18.73;12.93;;;;;;;;;;5001845;28;20185;-69
2023/09/02 11:07:32;;;;;;;19.25;12.82;;;;;;;;;;5006408;28;20649;-69
2023/09/02 11:09:58;;;;;;;21.52;13.45;;;;;;;;;;5009090;28;20181;-69
2023/09/02 11:12:23;;;;;;;18.02;12.18;;;;;;;;;;5010016;28;20211;-69
2023/09/02 11:15:07;;;;;;;17.42;12.77;;;;;;;;;;5011308;28;20191;-68
2023/09/02 11:17:32;;;;;;;16.85;12.13;;;;;;;;;;5010040;28;20175;-69
2023/09/02 11:20:02;;;;;;;19.27;12.68;;;;;;;;;;5012458;28;20178;-69
2023/09/02 11:22:46;;;;;;;19.55;13.10;;;;;;;;;;5012470;28;20183;-69
2023/09/02 11:25:22;;;;;;;18.40;13.32;;;;;;;;;;5012288;28;20175;-69
2023/09/02 11:27:47;;;;;;;20.65;13.55;;;;;;;;;;5010045;28;20265;-66
2023/09/02 11:30:13;;;;;;;19.10;13.02;;;;;;;;;;5011858;28;20313;-66
2023/09/02 11:32:42;;;;;;;18.75;12.55;;;;;;;;;;5009968;28;20179;-66
2023/09/02 11:35:08;;;;;;;18.08;11.75;;;;;;;;;;5011229;28;20213;-67
2023/09/02 11:37:33;;;;;;;20.35;13.45;;;;;;;;;;5009462;28;20209;-69
2023/09/02 11:40:11;;;;;;;17.40;11.82;;;;;;;;;;5009060;28;20163;-68
2023/09/02 11:42:46;;;;;;;18.95;13.45;;;;;;;;;;5007207;28;20182;-69
2023/09/02 11:45:13;;;;;;;16.80;11.25;;;;;;;;;;5014386;28;20179;-68
2023/09/02 11:47:38;;;;;;;18.77;12.82;;;;;;;;;;5013633;28;20182;-69
2023/09/02 11:50:03;;;;;;;17.27;11.85;;;;;;;;;;5013249;28;20163;-68
2023/09/02 11:52:29;;;;;;;17.00;10.93;;;;;;;;;;5012388;28;20265;-68
2023/09/02 11:54:54;;;;;;;15.68;10.57;;;;;;;;;;5004102;28;20211;-68
2023/09/02 11:57:19;;;;;;;19.83;11.10;;;;;;;;;;5011347;28;20633;-69
2023/09/02 11:59:45;;;;;;;17.13;11.52;;;;;;;;;;5011223;28;20558;-69
2023/09/02 12:02:11;;;;;;;16.90;10.87;;;;;;;;;;5006949;28;20731;-68
2023/09/02 12:04:41;;;;;;;15.45;10.73;;;;;;;;;;5009204;28;22000;-69
2023/09/02 12:07:07;;;;;;;15.27;11.18;;;;;;;;;;5009529;28;20179;-68
2023/09/02 12:09:34;;;;;;;13.63;9.95;;;;;;;;;;5008261;28;20183;-68
2023/09/02 12:12:00;;;;;;;14.18;9.35;;;;;;;;;;5006696;28;20207;-68
2023/09/02 12:14:26;;;;;;;13.23;8.70;;;;;;;;;;5009283;28;20206;-68
2023/09/02 12:16:52;;;;;;;13.70;9.65;;;;;;;;;;5012932;28;20266;-68
2023/09/02 12:19:18;;;;;;;14.38;9.90;;;;;;;;;;4995622;28;20247;-68
2023/09/02 12:21:44;;;;;;;15.90;10.23;;;;;;;;;;5020153;23;20246;-70
2023/09/02 12:24:09;;;;;;;17.35;10.65;;;;;;;;;;5031325;28;20542;-70
2023/09/02 12:26:47;;;;;;;17.15;10.18;;;;;;;;;;5026385;28;20273;-70
2023/09/02 12:29:18;;;;;;;14.70;9.57;;;;;;;;;;5019166;28;20186;-70
2023/09/02 12:32:10;;;;;;;13.60;9.18;;;;;;;;;;5024307;28;20244;-70
2023/09/02 12:34:38;;;;;;;13.68;9.30;;;;;;;;;;5030347;28;20244;-69
2023/09/02 12:37:20;;;;;;;12.85;9.20;;;;;;;;;;5032417;28;20174;-70
2023/09/02 12:39:45;;;;;;;12.32;9.20;;;;;;;;;;5026497;28;20185;-70
2023/09/02 12:42:18;;;;;;;13.00;9.05;;;;;;;;;;5032318;28;20201;-69
2023/09/02 12:44:50;;;;;;;14.07;9.95;;;;;;;;;;5015604;28;20532;-70
2023/09/02 12:47:34;;;;;;;11.95;9.10;;;;;;;;;;5023502;28;20194;-70
2023/09/02 12:50:02;;;;;;;13.02;8.57;;;;;;;;;;5031236;28;20186;-70
2023/09/02 12:52:29;;;;;;;13.68;10.57;;;;;;;;;;5030639;28;20552;-70
2023/09/02 12:54:55;;;;;;;12.18;9.00;;;;;;;;;;5030880;28;20206;-70
2023/09/02 12:57:22;;;;;;;13.05;10.02;;;;;;;;;;5029354;28;20881;-70
2023/09/02 12:59:47;;;;;;;14.07;9.63;;;;;;;;;;5024069;28;20182;-69
2023/09/02 13:02:12;;;;;;;14.83;10.23;;;;;;;;;;5010300;28;20201;-69
2023/09/02 13:04:38;;;;;;;13.40;9.07;;;;;;;;;;5025467;28;20423;-69
2023/09/02 13:07:03;;;;;;;13.75;10.00;;;;;;;;;;5023986;28;20830;-69
2023/09/02 13:09:28;;;;;;;14.48;10.60;;;;;;;;;;5032717;28;20181;-70
2023/09/02 13:11:53;;;;;;;13.82;10.10;;;;;;;;;;5027672;28;20225;-70
2023/09/02 13:14:19;;;;;;;13.57;9.95;;;;;;;;;;5028210;28;20281;-70
2023/09/02 13:16:44;;;;;;;14.80;10.60;;;;;;;;;;5030667;28;20257;-69
2023/09/02 13:19:09;;;;;;;14.10;10.07;;;;;;;;;;5029793;28;20296;-70
2023/09/02 13:21:36;;;;;;;13.13;9.80;;;;;;;;;;5026801;28;20483;-69
2023/09/02 13:24:02;;;;;;;15.75;11.43;;;;;;;;;;5024951;28;20709;-69
2023/09/02 13:26:27;;;;;;;15.25;10.43;;;;;;;;;;5027250;28;20292;-69
2023/09/02 13:28:52;;;;;;;12.63;9.93;;;;;;;;;;5032203;28;20193;-70
2023/09/02 13:31:19;;;;;;;12.90;9.38;;;;;;;;;;5024806;28;20194;-70
2023/09/02 13:33:45;;;;;;;12.05;8.63;;;;;;;;;;5027060;28;20285;-69
2023/09/02 13:36:11;;;;;;;13.20;8.82;;;;;;;;;;5021524;28;20705;-69
2023/09/02 13:38:40;;;;;;;8.70;7.03;;;;;;;;;;5022643;28;20456;-70
2023/09/02 13:41:05;;;;;;;7.95;7.00;;;;;;;;;;5027161;28;20675;-70
2023/09/02 13:43:31;;;;;;;11.02;7.72;;;;;;;;;;5027038;28;20217;-70
2023/09/02 13:45:57;;;;;;;9.82;7.47;;;;;;;;;;5029543;28;20194;-70
2023/09/02 13:48:23;;;;;;;12.13;8.82;;;;;;;;;;5029044;28;20269;-70
2023/09/02 13:50:50;;;;;;;10.93;8.15;;;;;;;;;;5019682;28;20228;-69
2023/09/02 13:53:16;;;;;;;11.18;8.05;;;;;;;;;;5025502;28;20178;-70
2023/09/02 13:55:45;;;;;;;9.70;7.80;;;;;;;;;;5026808;28;20174;-70
2023/09/02 13:58:13;;;;;;;10.57;8.30;;;;;;;;;;5027513;28;20249;-70
2023/09/02 14:00:40;;;;;;;12.85;8.98;;;;;;;;;;5028594;28;20232;-70
2023/09/02 14:03:13;;;;;;;7.95;7.00;;;;;;;;;;5026016;28;20171;-69
2023/09/02 14:05:38;;;;;;;15.07;9.98;;;;;;;;;;5025779;28;20181;-70
2023/09/02 14:08:04;;;;;;;9.30;7.95;;;;;;;;;;5026111;28;20170;-70
2023/09/02 14:10:30;;;;;;;9.90;8.02;;;;;;;;;;5030376;28;20247;-70
2023/09/02 14:12:56;;;;;;;10.77;8.93;;;;;;;;;;5030594;28;20194;-70